createdAt,value
2023-02-24T00:01:51.828Z,31.60
2023-02-24T00:04:26.251Z,32.50
2023-02-24T00:07:00.104Z,34.30
2023-02-24T00:09:34.637Z,33.60
2023-02-24T00:12:09.188Z,37.80
2023-02-24T00:14:47.607Z,31.00
2023-02-24T00:17:20.849Z,34.10
2023-02-24T00:19:53.910Z,30.70
2023-02-24T00:22:26.819Z,38.10
2023-02-24T00:25:01.598Z,36.00
2023-02-24T00:27:34.471Z,33.40
2023-02-24T00:30:11.315Z,38.50
2023-02-24T00:32:46.056Z,40.20
2023-02-24T00:35:20.618Z,42.80
2023-02-24T00:37:54.700Z,40.80
2023-02-24T00:40:30.981Z,39.40
2023-02-24T00:43:08.409Z,42.30
2023-02-24T00:45:42.408Z,45.70
2023-02-24T00:48:21.309Z,43.00
2023-02-24T00:50:55.303Z,41.90
2023-02-24T00:53:30.318Z,40.70
2023-02-24T00:56:07.700Z,44.30
2023-02-24T00:58:43.274Z,42.00
2023-02-24T01:01:18.952Z,40.30
2023-02-24T01:03:54.914Z,44.10
2023-02-24T01:06:29.584Z,45.40
2023-02-24T01:09:02.609Z,46.00
2023-02-24T01:11:58.089Z,42.60
2023-02-24T01:14:32.559Z,46.50
2023-02-24T01:17:05.748Z,50.40
2023-02-24T01:19:39.205Z,49.10
2023-02-24T01:22:14.813Z,50.60
2023-02-24T01:24:47.890Z,43.30
2023-02-24T01:27:21.103Z,49.60
2023-02-24T01:29:54.769Z,40.60
2023-02-24T01:32:32.232Z,42.50
2023-02-24T01:35:06.399Z,42.50
2023-02-24T01:37:39.995Z,34.30
2023-02-24T01:40:21.846Z,34.50
2023-02-24T01:42:56.972Z,32.30
2023-02-24T01:45:30.182Z,32.30
2023-02-24T01:48:05.480Z,33.00
2023-02-24T01:50:40.149Z,29.00
2023-02-24T01:53:15.869Z,27.60
2023-02-24T01:55:50.177Z,25.30
2023-02-24T01:58:28.018Z,29.50
2023-02-24T02:01:08.923Z,26.50
2023-02-24T02:03:43.325Z,27.00
2023-02-24T02:06:18.538Z,26.90
2023-02-24T02:08:51.580Z,28.30
2023-02-24T02:11:24.580Z,26.90
2023-02-24T02:14:01.830Z,25.80
2023-02-24T02:16:46.736Z,24.00
2023-02-24T02:22:36.853Z,21.30
2023-02-24T02:25:13.168Z,23.70
2023-02-24T02:27:58.437Z,21.20
2023-02-24T02:31:02.351Z,22.80
2023-02-24T02:34:07.141Z,22.60
2023-02-24T02:36:45.159Z,23.20
2023-02-24T02:39:21.032Z,21.50
2023-02-24T02:41:55.951Z,19.70
2023-02-24T02:44:33.057Z,18.60
2023-02-24T02:47:09.526Z,20.20
2023-02-24T02:49:44.344Z,19.80
2023-02-24T02:52:21.662Z,19.50
2023-02-24T02:54:56.455Z,18.70
2023-02-24T02:57:31.295Z,18.70
2023-02-24T03:00:12.617Z,18.00
2023-02-24T03:02:48.170Z,19.90
2023-02-24T03:05:22.564Z,20.30
2023-02-24T03:07:58.706Z,19.30
2023-02-24T03:10:34.622Z,20.20
2023-02-24T03:13:07.721Z,17.70
2023-02-24T03:15:42.747Z,17.40
2023-02-24T03:18:18.774Z,19.00
2023-02-24T03:20:57.694Z,19.30
2023-02-24T03:23:33.914Z,17.60
2023-02-24T03:26:17.178Z,19.20
2023-02-24T03:28:59.545Z,18.00
2023-02-24T03:31:35.056Z,18.90
2023-02-24T03:34:09.488Z,19.30
2023-02-24T03:36:47.758Z,17.80
2023-02-24T03:39:21.324Z,19.00
2023-02-24T03:42:04.764Z,18.40
2023-02-24T03:44:39.893Z,15.70
2023-02-24T03:47:20.557Z,18.00
2023-02-24T03:49:54.060Z,17.90
2023-02-24T03:52:32.948Z,19.90
2023-02-24T03:55:18.564Z,17.80
2023-02-24T03:58:01.208Z,18.20
2023-02-24T04:00:45.418Z,17.10
2023-02-24T04:03:27.676Z,17.00
2023-02-24T04:06:14.043Z,17.30
2023-02-24T04:09:01.611Z,18.60
2023-02-24T04:11:37.721Z,18.60
2023-02-24T04:14:12.285Z,17.50
2023-02-24T04:16:50.057Z,17.50
2023-02-24T04:19:24.384Z,17.30
2023-02-24T04:21:57.653Z,16.80
2023-02-24T04:24:32.408Z,14.80
2023-02-24T04:27:07.797Z,16.80
2023-02-24T04:29:49.905Z,17.90
2023-02-24T04:32:25.488Z,16.40
2023-02-24T04:35:07.645Z,16.20
2023-02-24T04:37:44.706Z,16.30
2023-02-24T04:40:22.275Z,16.00
2023-02-24T04:42:55.984Z,17.00
2023-02-24T04:57:19.116Z,17.40
2023-02-24T04:59:54.342Z,16.00
2023-02-24T05:02:25.453Z,18.70
2023-02-24T05:04:57.079Z,16.50
2023-02-24T05:10:00.214Z,15.00
2023-02-24T05:12:40.204Z,15.40
2023-02-24T05:15:12.342Z,17.80
2023-02-24T05:17:43.476Z,14.00
2023-02-24T05:20:32.603Z,17.00
2023-02-24T05:23:04.343Z,15.40
2023-02-24T05:25:38.105Z,13.10
2023-02-24T05:28:09.378Z,18.20
2023-02-24T05:30:40.599Z,17.10
2023-02-24T05:33:11.899Z,15.10
2023-02-24T05:35:43.912Z,16.50
2023-02-24T05:38:15.359Z,17.30
2023-02-24T05:40:48.804Z,16.80
2023-02-24T05:43:20.211Z,17.40
2023-02-24T05:45:51.149Z,18.50
2023-02-24T05:48:25.286Z,17.10
2023-02-24T05:50:56.340Z,15.40
2023-02-24T05:53:27.396Z,19.20
2023-02-24T05:55:59.300Z,16.50
2023-02-24T05:58:32.801Z,18.10
2023-02-24T06:01:19.530Z,16.40
2023-02-24T06:03:54.576Z,16.10
2023-02-24T06:06:25.795Z,13.60
2023-02-24T06:09:02.594Z,17.80
2023-02-24T06:11:34.308Z,16.90
2023-02-24T06:14:07.527Z,16.60
2023-02-24T06:16:44.297Z,17.50
2023-02-24T06:19:17.644Z,16.70
2023-02-24T06:21:49.798Z,16.40
2023-02-24T06:24:23.755Z,16.40
2023-02-24T06:29:29.887Z,13.00
2023-02-24T06:32:09.059Z,16.80
2023-02-24T06:34:41.051Z,15.60
2023-02-24T06:37:13.190Z,15.70
2023-02-24T06:39:44.409Z,15.40
2023-02-24T06:42:16.023Z,17.40
2023-02-24T06:47:18.237Z,15.30
2023-02-24T06:49:50.356Z,15.40
2023-02-24T06:52:22.707Z,13.90
2023-02-24T06:57:25.656Z,14.90
2023-02-24T06:59:56.983Z,15.00
2023-02-24T07:05:06.610Z,15.60
2023-02-24T07:07:37.898Z,16.20
2023-02-24T07:10:12.167Z,16.60
2023-02-24T07:12:43.779Z,14.70
2023-02-24T07:15:17.253Z,15.50
2023-02-24T07:17:51.113Z,15.20
2023-02-24T07:20:25.822Z,13.50
2023-02-24T07:22:57.596Z,16.00
2023-02-24T07:25:34.815Z,14.60
2023-02-24T07:28:07.799Z,15.30
2023-02-24T07:30:39.272Z,15.90
2023-02-24T07:33:19.650Z,16.40
2023-02-24T07:35:52.715Z,12.80
2023-02-24T07:38:24.488Z,14.90
2023-02-24T07:43:27.245Z,11.50
2023-02-24T07:45:58.641Z,14.20
2023-02-24T07:48:30.520Z,14.80
2023-02-24T07:51:02.117Z,14.10
2023-02-24T07:53:33.653Z,14.90
2023-02-24T07:56:13.812Z,12.60
2023-02-24T07:58:44.981Z,12.00
2023-02-24T08:01:23.354Z,13.90
2023-02-24T08:03:56.567Z,13.50
2023-02-24T08:06:31.881Z,12.30
2023-02-24T08:09:17.101Z,11.70
2023-02-24T08:11:52.426Z,13.60
2023-02-24T08:14:25.248Z,12.50
2023-02-24T08:16:59.807Z,11.40
2023-02-24T08:19:39.986Z,13.90
2023-02-24T08:22:20.623Z,13.10
2023-02-24T08:24:54.589Z,11.50
2023-02-24T08:27:30.610Z,13.30
2023-02-24T08:30:03.152Z,13.20
2023-02-24T08:32:37.468Z,12.10
2023-02-24T08:35:15.648Z,12.60
2023-02-24T08:37:48.562Z,11.90
2023-02-24T08:40:38.239Z,12.50
2023-02-24T08:43:19.870Z,13.20
2023-02-24T08:45:51.723Z,12.00
2023-02-24T08:48:32.560Z,12.80
2023-02-24T08:53:34.812Z,12.00
2023-02-24T08:56:09.829Z,12.30
2023-02-24T08:58:47.598Z,13.80
2023-02-24T09:01:20.640Z,12.90
2023-02-24T09:03:53.641Z,11.20
2023-02-24T09:06:36.724Z,13.30
2023-02-24T09:09:19.079Z,11.00
2023-02-24T09:11:56.671Z,12.90
2023-02-24T09:14:29.522Z,12.50
2023-02-24T09:17:03.740Z,12.50
2023-02-24T09:19:56.074Z,12.90
2023-02-24T09:22:38.104Z,12.40
2023-02-24T09:25:21.952Z,10.70
2023-02-24T09:27:57.348Z,12.50
2023-02-24T09:30:51.651Z,11.30
2023-02-24T09:33:24.643Z,11.30
2023-02-24T09:36:03.482Z,11.10
2023-02-24T09:38:52.997Z,13.60
2023-02-24T09:41:45.568Z,13.10
2023-02-24T09:44:18.683Z,11.50
2023-02-24T09:46:55.269Z,10.10
2023-02-24T09:49:37.150Z,10.90
2023-02-24T09:52:17.499Z,11.50
2023-02-24T09:55:15.170Z,10.30
2023-02-24T09:58:02.194Z,10.30
2023-02-24T10:00:33.988Z,12.70
2023-02-24T10:03:19.952Z,11.60
2023-02-24T10:05:59.163Z,10.50
2023-02-24T10:08:32.215Z,11.00
2023-02-24T10:11:08.516Z,12.30
2023-02-24T10:13:44.186Z,10.60
2023-02-24T10:16:15.939Z,9.90
2023-02-24T10:18:48.781Z,11.30
2023-02-24T10:21:30.958Z,9.60
2023-02-24T10:24:08.672Z,12.50
2023-02-24T10:26:59.702Z,11.30
2023-02-24T10:29:39.184Z,11.10
2023-02-24T10:32:24.356Z,10.70
2023-02-24T10:34:56.597Z,9.80
2023-02-24T10:37:29.660Z,9.40
2023-02-24T10:40:10.273Z,9.00
2023-02-24T10:42:46.179Z,10.80
2023-02-24T10:45:26.000Z,8.90
2023-02-24T10:47:58.418Z,9.70
2023-02-24T10:50:34.902Z,9.80
2023-02-24T10:53:26.805Z,9.70
2023-02-24T10:56:15.477Z,9.10
2023-02-24T10:58:57.056Z,9.30
2023-02-24T11:01:41.046Z,9.80
2023-02-24T11:04:23.271Z,8.80
2023-02-24T11:09:35.471Z,10.00
2023-02-24T11:12:26.290Z,9.50
2023-02-24T11:15:15.775Z,10.10
2023-02-24T11:17:51.218Z,10.00
2023-02-24T11:20:42.327Z,8.40
2023-02-24T11:23:19.734Z,9.30
2023-02-24T11:25:52.158Z,10.50
2023-02-24T11:28:29.683Z,9.80
2023-02-24T11:31:05.018Z,8.60
2023-02-24T11:33:40.139Z,8.40
2023-02-24T11:36:14.459Z,8.60
2023-02-24T11:38:47.121Z,8.60
2023-02-24T11:41:21.439Z,9.70
2023-02-24T11:43:58.819Z,9.60
2023-02-24T11:46:34.062Z,8.90
2023-02-24T11:49:05.451Z,9.20
2023-02-24T11:51:38.163Z,7.90
2023-02-24T11:54:12.721Z,9.00
2023-02-24T11:56:45.453Z,9.20
2023-02-24T11:59:22.566Z,9.50
2023-02-24T12:01:53.868Z,9.30
2023-02-24T12:04:27.300Z,8.70
2023-02-24T12:07:01.195Z,9.10
2023-02-24T12:09:33.537Z,9.70
2023-02-24T12:12:07.488Z,7.70
2023-02-24T12:14:39.544Z,7.70
2023-02-24T12:17:18.646Z,8.90
2023-02-24T12:19:57.566Z,8.80
2023-02-24T12:22:32.834Z,8.30
2023-02-24T12:25:05.430Z,9.10
2023-02-24T12:27:42.582Z,9.30
2023-02-24T12:30:34.758Z,8.90
2023-02-24T12:33:10.573Z,8.90
2023-02-24T12:35:44.755Z,9.30
2023-02-24T12:38:22.958Z,8.50
2023-02-24T12:40:57.509Z,9.50
2023-02-24T12:43:29.617Z,8.70
2023-02-24T12:46:02.826Z,9.50
2023-02-24T12:48:46.791Z,9.00
2023-02-24T12:51:21.755Z,9.20
2023-02-24T12:53:57.559Z,8.90
2023-02-24T12:56:29.600Z,7.50
2023-02-24T12:59:02.567Z,9.30
2023-02-24T13:01:35.434Z,8.60
2023-02-24T13:04:12.703Z,9.40
2023-02-24T13:06:56.905Z,10.10
2023-02-24T13:11:58.320Z,9.70
2023-02-24T13:14:32.036Z,9.90
2023-02-24T13:17:07.304Z,9.80
2023-02-24T13:19:39.191Z,10.80
2023-02-24T13:22:20.129Z,10.10
2023-02-24T13:24:58.559Z,8.70
2023-02-24T13:27:29.692Z,9.00
2023-02-24T13:30:01.937Z,8.90
2023-02-24T13:32:33.990Z,9.70
2023-02-24T13:35:06.955Z,8.30
2023-02-24T13:37:39.153Z,8.30
2023-02-24T13:42:40.312Z,9.30
2023-02-24T13:45:20.803Z,9.70
2023-02-24T13:48:09.463Z,9.90
2023-02-24T13:50:41.735Z,9.70
2023-02-24T13:53:18.662Z,9.60
2023-02-24T13:55:52.575Z,11.50
2023-02-24T13:58:37.287Z,9.60
2023-02-24T14:01:09.048Z,10.20
2023-02-24T14:03:41.365Z,10.30
2023-02-24T14:06:16.676Z,11.20
2023-02-24T14:08:49.207Z,13.30
2023-02-24T14:11:22.057Z,13.20
2023-02-24T14:13:54.073Z,11.00
2023-02-24T14:16:28.452Z,11.70
2023-02-24T14:19:02.114Z,11.20
2023-02-24T14:21:34.337Z,12.40
2023-02-24T14:24:06.581Z,12.00
2023-02-24T14:26:46.333Z,11.30
2023-02-24T14:29:17.747Z,11.40
2023-02-24T14:31:52.683Z,12.30
2023-02-24T14:34:24.546Z,12.60
2023-02-24T14:36:58.658Z,9.70
2023-02-24T14:39:30.518Z,11.60
2023-02-24T14:42:12.043Z,10.40
2023-02-24T14:44:44.533Z,10.90
2023-02-24T14:47:16.333Z,11.20
2023-02-24T14:49:55.572Z,10.20
2023-02-24T14:52:29.454Z,11.30
2023-02-24T14:55:01.452Z,11.50
2023-02-24T14:57:34.832Z,10.40
2023-02-24T15:00:11.872Z,11.10
2023-02-24T15:02:44.273Z,10.50
2023-02-24T15:05:15.552Z,10.90
2023-02-24T15:10:26.112Z,10.50
2023-02-24T15:12:59.715Z,8.60
2023-02-24T15:15:38.914Z,10.80
2023-02-24T15:18:13.809Z,10.80
2023-02-24T15:20:44.784Z,11.50
2023-02-24T15:23:29.351Z,10.90
2023-02-24T15:26:00.735Z,10.70
2023-02-24T15:28:33.246Z,9.60
2023-02-24T15:31:07.052Z,9.80
2023-02-24T15:33:40.791Z,11.70
2023-02-24T15:36:12.676Z,10.40
2023-02-24T15:38:44.060Z,10.50
2023-02-24T15:41:15.301Z,9.50
2023-02-24T15:43:50.600Z,8.60
2023-02-24T15:46:26.332Z,9.00
2023-02-24T15:49:01.988Z,10.00
2023-02-24T15:51:37.051Z,11.00
2023-02-24T15:54:08.828Z,10.10
2023-02-24T15:56:40.233Z,11.50
2023-02-24T15:59:12.575Z,9.30
2023-02-24T16:01:44.311Z,9.20
2023-02-24T16:04:15.491Z,10.80
2023-02-24T16:06:54.527Z,11.50
2023-02-24T16:09:27.540Z,10.00
2023-02-24T16:11:58.847Z,9.70
2023-02-24T16:14:29.875Z,9.40
2023-02-24T16:17:01.018Z,9.30
2023-02-24T16:19:35.133Z,10.80
2023-02-24T16:22:06.264Z,11.10
2023-02-24T16:24:38.444Z,10.70
2023-02-24T16:27:09.582Z,10.40
2023-02-24T16:29:40.841Z,10.20
2023-02-24T16:32:14.095Z,9.30
2023-02-24T16:34:45.944Z,10.90
2023-02-24T16:37:19.943Z,11.70
2023-02-24T16:39:51.174Z,11.10
2023-02-24T16:42:22.541Z,10.20
2023-02-24T16:44:53.643Z,10.70
2023-02-24T16:47:24.781Z,11.80
2023-02-24T16:52:29.012Z,11.80
2023-02-24T16:55:02.355Z,9.20
2023-02-24T16:57:33.825Z,11.00
2023-02-24T17:00:05.748Z,12.10
2023-02-24T17:02:37.066Z,10.70
2023-02-24T17:05:11.297Z,11.50
2023-02-24T17:07:42.434Z,11.20
2023-02-24T17:10:15.038Z,12.40
2023-02-24T17:12:47.928Z,11.90
2023-02-24T17:15:20.352Z,13.30
2023-02-24T17:17:52.001Z,11.40
2023-02-24T17:20:23.740Z,10.30
2023-02-24T17:22:55.800Z,12.30
2023-02-24T17:25:27.487Z,9.70
2023-02-24T17:30:28.792Z,9.70
2023-02-24T17:32:59.800Z,12.90
2023-02-24T17:35:31.090Z,11.50
2023-02-24T17:38:02.429Z,11.20
2023-02-24T17:40:35.406Z,11.60
2023-02-24T17:45:37.116Z,11.20
2023-02-24T17:48:08.433Z,12.40
2023-02-24T17:53:09.653Z,12.50
2023-02-24T17:56:01.638Z,13.50
2023-02-24T17:58:33.669Z,15.10
2023-02-24T18:01:06.031Z,14.00
2023-02-24T18:03:38.314Z,16.40
2023-02-24T18:06:10.779Z,12.80
2023-02-24T18:08:42.608Z,13.90
2023-02-24T18:11:16.432Z,14.80
2023-02-24T18:13:52.953Z,16.20
2023-02-24T18:16:24.651Z,16.20
2023-02-24T18:18:56.017Z,12.90
2023-02-24T18:21:27.115Z,18.80
2023-02-24T18:23:58.221Z,14.30
2023-02-24T18:26:29.690Z,15.50
2023-02-24T18:29:01.765Z,16.10
2023-02-24T18:31:33.478Z,17.00
2023-02-24T18:34:04.886Z,15.40
2023-02-24T18:36:35.897Z,17.70
2023-02-24T18:39:07.719Z,16.30
2023-02-24T18:41:38.868Z,17.20
2023-02-24T18:44:10.737Z,16.70
2023-02-24T18:46:41.910Z,17.70
2023-02-24T18:49:13.172Z,16.90
2023-02-24T18:51:46.212Z,19.80
2023-02-24T18:54:17.244Z,18.80
2023-02-24T18:56:50.513Z,17.80
2023-02-24T19:01:51.739Z,17.30
2023-02-24T19:04:23.063Z,19.00
2023-02-24T19:06:54.217Z,17.50
2023-02-24T19:09:25.111Z,17.00
2023-02-24T19:11:56.413Z,17.70
2023-02-24T19:14:27.408Z,19.90
2023-02-24T19:16:58.691Z,17.60
2023-02-24T19:19:30.404Z,15.90
2023-02-24T19:22:01.695Z,18.90
2023-02-24T19:24:33.065Z,20.00
2023-02-24T19:27:04.355Z,20.60
2023-02-24T19:29:38.536Z,19.40
2023-02-24T19:34:46.268Z,20.10
2023-02-24T19:37:17.383Z,19.80
2023-02-24T19:39:48.519Z,19.60
2023-02-24T19:42:19.599Z,18.80
2023-02-24T19:44:51.156Z,20.80
2023-02-24T19:47:22.852Z,21.70
2023-02-24T19:49:53.866Z,22.70
2023-02-24T19:52:25.083Z,16.90
2023-02-24T19:54:58.175Z,22.30
2023-02-24T19:57:29.261Z,22.30
2023-02-24T20:00:00.338Z,23.10
2023-02-24T20:02:31.521Z,20.00
2023-02-24T20:05:02.874Z,21.70
2023-02-24T20:07:39.021Z,20.30
2023-02-24T20:10:11.161Z,21.30
2023-02-24T20:12:42.533Z,21.80
2023-02-24T20:15:13.835Z,20.80
2023-02-24T20:17:49.702Z,23.40
2023-02-24T20:20:21.561Z,19.70
2023-02-24T20:22:53.306Z,20.30
2023-02-24T20:25:25.707Z,20.70
2023-02-24T20:30:26.784Z,22.90
2023-02-24T20:35:28.617Z,18.70
2023-02-24T20:38:00.522Z,20.50
2023-02-24T20:40:33.093Z,19.10
2023-02-24T20:43:05.872Z,21.20
2023-02-24T20:48:09.382Z,20.20
2023-02-24T20:50:40.500Z,18.30
2023-02-24T20:53:13.244Z,20.60
2023-02-24T20:55:48.185Z,21.10
2023-02-24T20:58:19.289Z,18.60
2023-02-24T21:00:50.416Z,20.40
2023-02-24T21:03:24.130Z,21.20
2023-02-24T21:06:09.210Z,21.60
2023-02-24T21:08:41.715Z,20.90
2023-02-24T21:11:12.801Z,22.10
2023-02-24T21:13:46.003Z,19.50
2023-02-24T21:16:17.344Z,21.60
2023-02-24T21:21:20.042Z,20.30
2023-02-24T21:23:52.364Z,19.60
2023-02-24T21:26:27.139Z,19.50
2023-02-24T21:28:59.609Z,19.80
2023-02-24T21:31:31.402Z,18.60
2023-02-24T21:34:04.112Z,19.20
2023-02-24T21:36:36.012Z,18.80
2023-02-24T21:39:08.001Z,18.00
2023-02-24T21:41:40.842Z,20.20
2023-02-24T21:44:12.946Z,18.60
2023-02-24T21:46:43.927Z,17.90
2023-02-24T21:49:15.159Z,20.10
2023-02-24T21:51:47.298Z,19.10
2023-02-24T21:54:18.699Z,20.00
2023-02-24T21:56:49.869Z,18.70
2023-02-24T21:59:21.292Z,20.80
2023-02-24T22:01:54.466Z,19.10
2023-02-24T22:04:25.836Z,19.10
2023-02-24T22:06:58.969Z,18.00
2023-02-24T22:09:31.921Z,19.20
2023-02-24T22:12:03.116Z,17.10
2023-02-24T22:14:35.920Z,17.50
2023-02-24T22:17:07.238Z,14.80
2023-02-24T22:19:39.148Z,16.70
2023-02-24T22:22:10.461Z,17.40
2023-02-24T22:24:41.933Z,17.00
2023-02-24T22:27:13.453Z,18.00
2023-02-24T22:29:45.851Z,18.50
2023-02-24T22:32:17.263Z,17.50
2023-02-24T22:34:49.064Z,18.00
2023-02-24T22:37:20.002Z,18.70
2023-02-24T22:39:51.350Z,16.50
2023-02-24T22:42:22.608Z,16.60
2023-02-24T22:44:53.779Z,16.90
2023-02-24T22:47:25.283Z,17.00
2023-02-24T22:49:56.545Z,17.30
2023-02-24T22:52:28.464Z,19.10
2023-02-24T22:54:59.653Z,17.40
2023-02-24T22:57:34.333Z,15.30
2023-02-24T23:00:09.972Z,16.50
2023-02-24T23:02:42.035Z,16.80
2023-02-24T23:05:16.771Z,15.90
2023-02-24T23:07:48.859Z,12.90
2023-02-24T23:10:22.016Z,16.90
2023-02-24T23:12:53.310Z,18.00
2023-02-24T23:15:24.594Z,15.20
2023-02-24T23:17:55.614Z,15.50
2023-02-24T23:20:27.178Z,14.90
2023-02-24T23:22:58.237Z,15.90
2023-02-24T23:25:30.551Z,15.60
2023-02-24T23:28:01.606Z,15.60
2023-02-24T23:30:33.110Z,15.30
2023-02-24T23:33:04.511Z,13.40
2023-02-24T23:38:06.571Z,14.60
2023-02-24T23:40:49.277Z,13.60
2023-02-24T23:43:21.292Z,14.40
2023-02-24T23:45:52.663Z,17.20
2023-02-24T23:50:57.601Z,14.40
2023-02-24T23:53:29.439Z,15.80
2023-02-24T23:56:00.432Z,15.00
2023-02-24T23:58:31.345Z,14.50
